sensor_id;sensor_type;location;lat;lon;timestamp;P1;durP1;ratioP1;P2;durP2;ratioP2
22650;SDS011;11492;42.646;23.400;2022-12-11T00:01:26;19.50;;;7.05;;
22650;SDS011;11492;42.646;23.400;2022-12-11T00:03:52;20.88;;;8.85;;
22650;SDS011;11492;42.646;23.400;2022-12-11T00:06:18;22.52;;;9.90;;
22650;SDS011;11492;42.646;23.400;2022-12-11T00:08:45;24.38;;;10.63;;
22650;SDS011;11492;42.646;23.400;2022-12-11T00:11:11;16.92;;;9.73;;
22650;SDS011;11492;42.646;23.400;2022-12-11T00:13:38;22.35;;;10.50;;
22650;SDS011;11492;42.646;23.400;2022-12-11T00:16:04;26.00;;;10.57;;
22650;SDS011;11492;42.646;23.400;2022-12-11T00:18:30;22.20;;;10.75;;
22650;SDS011;11492;42.646;23.400;2022-12-11T00:20:58;24.25;;;9.90;;
22650;SDS011;11492;42.646;23.400;2022-12-11T00:23:25;24.38;;;9.57;;
22650;SDS011;11492;42.646;23.400;2022-12-11T00:25:51;25.50;;;9.73;;
22650;SDS011;11492;42.646;23.400;2022-12-11T00:28:16;22.67;;;10.50;;
22650;SDS011;11492;42.646;23.400;2022-12-11T00:30:43;23.90;;;10.30;;
22650;SDS011;11492;42.646;23.400;2022-12-11T00:33:09;27.63;;;11.95;;
22650;SDS011;11492;42.646;23.400;2022-12-11T00:35:39;22.15;;;11.63;;
22650;SDS011;11492;42.646;23.400;2022-12-11T00:38:05;23.92;;;11.07;;
22650;SDS011;11492;42.646;23.400;2022-12-11T00:40:35;26.40;;;11.40;;
22650;SDS011;11492;42.646;23.400;2022-12-11T00:43:01;26.67;;;11.35;;
22650;SDS011;11492;42.646;23.400;2022-12-11T00:45:27;24.90;;;11.90;;
22650;SDS011;11492;42.646;23.400;2022-12-11T00:47:52;23.02;;;11.68;;
22650;SDS011;11492;42.646;23.400;2022-12-11T00:50:17;24.67;;;10.63;;
22650;SDS011;11492;42.646;23.400;2022-12-11T00:52:43;21.80;;;11.18;;
22650;SDS011;11492;42.646;23.400;2022-12-11T00:55:08;21.83;;;10.82;;
22650;SDS011;11492;42.646;23.400;2022-12-11T00:57:34;26.42;;;13.45;;
22650;SDS011;11492;42.646;23.400;2022-12-11T01:00:00;32.58;;;14.35;;
22650;SDS011;11492;42.646;23.400;2022-12-11T01:02:25;28.15;;;14.32;;
22650;SDS011;11492;42.646;23.400;2022-12-11T01:04:51;30.70;;;14.23;;
22650;SDS011;11492;42.646;23.400;2022-12-11T01:07:16;38.00;;;14.18;;
22650;SDS011;11492;42.646;23.400;2022-12-11T01:09:41;27.10;;;13.40;;
22650;SDS011;11492;42.646;23.400;2022-12-11T01:12:26;25.08;;;13.30;;
22650;SDS011;11492;42.646;23.400;2022-12-11T01:14:52;25.33;;;12.18;;
22650;SDS011;11492;42.646;23.400;2022-12-11T01:17:18;26.52;;;13.07;;
22650;SDS011;11492;42.646;23.400;2022-12-11T01:19:43;26.73;;;12.65;;
22650;SDS011;11492;42.646;23.400;2022-12-11T01:22:09;25.52;;;10.40;;
22650;SDS011;11492;42.646;23.400;2022-12-11T01:24:34;22.25;;;10.10;;
22650;SDS011;11492;42.646;23.400;2022-12-11T01:26:59;20.40;;;11.13;;
22650;SDS011;11492;42.646;23.400;2022-12-11T01:29:25;23.67;;;10.77;;
22650;SDS011;11492;42.646;23.400;2022-12-11T01:31:50;26.48;;;12.00;;
22650;SDS011;11492;42.646;23.400;2022-12-11T01:34:15;34.80;;;12.38;;
22650;SDS011;11492;42.646;23.400;2022-12-11T01:36:41;33.65;;;12.43;;
22650;SDS011;11492;42.646;23.400;2022-12-11T01:39:06;30.90;;;12.63;;
22650;SDS011;11492;42.646;23.400;2022-12-11T01:41:32;29.83;;;12.25;;
22650;SDS011;11492;42.646;23.400;2022-12-11T01:43:58;32.92;;;12.48;;
22650;SDS011;11492;42.646;23.400;2022-12-11T01:46:27;29.30;;;12.52;;
22650;SDS011;11492;42.646;23.400;2022-12-11T01:48:53;24.50;;;10.43;;
22650;SDS011;11492;42.646;23.400;2022-12-11T01:51:19;25.92;;;10.88;;
22650;SDS011;11492;42.646;23.400;2022-12-11T01:53:48;28.23;;;13.52;;
22650;SDS011;11492;42.646;23.400;2022-12-11T01:56:18;25.70;;;13.10;;
22650;SDS011;11492;42.646;23.400;2022-12-11T01:58:45;30.35;;;12.48;;
22650;SDS011;11492;42.646;23.400;2022-12-11T02:01:25;27.15;;;12.88;;
22650;SDS011;11492;42.646;23.400;2022-12-11T02:03:59;24.00;;;12.05;;
22650;SDS011;11492;42.646;23.400;2022-12-11T02:06:32;27.08;;;13.40;;
22650;SDS011;11492;42.646;23.400;2022-12-11T02:09:03;31.02;;;13.73;;
22650;SDS011;11492;42.646;23.400;2022-12-11T02:22:42;24.98;;;10.18;;
22650;SDS011;11492;42.646;23.400;2022-12-11T02:25:36;21.42;;;9.90;;
22650;SDS011;11492;42.646;23.400;2022-12-11T02:30:47;19.90;;;8.38;;
22650;SDS011;11492;42.646;23.400;2022-12-11T02:33:18;15.43;;;8.40;;
22650;SDS011;11492;42.646;23.400;2022-12-11T02:35:48;16.48;;;7.65;;
22650;SDS011;11492;42.646;23.400;2022-12-11T02:38:16;15.65;;;6.53;;
22650;SDS011;11492;42.646;23.400;2022-12-11T02:40:46;13.80;;;6.00;;
22650;SDS011;11492;42.646;23.400;2022-12-11T02:43:15;28.17;;;6.82;;
22650;SDS011;11492;42.646;23.400;2022-12-11T02:45:43;14.40;;;6.22;;
22650;SDS011;11492;42.646;23.400;2022-12-11T02:48:10;8.57;;;4.93;;
22650;SDS011;11492;42.646;23.400;2022-12-11T02:50:41;10.07;;;4.10;;
22650;SDS011;11492;42.646;23.400;2022-12-11T02:53:11;10.85;;;3.40;;
22650;SDS011;11492;42.646;23.400;2022-12-11T02:55:39;5.55;;;2.60;;
22650;SDS011;11492;42.646;23.400;2022-12-11T02:58:13;5.60;;;2.20;;
22650;SDS011;11492;42.646;23.400;2022-12-11T03:00:45;8.02;;;2.13;;
22650;SDS011;11492;42.646;23.400;2022-12-11T03:03:11;5.28;;;2.55;;
22650;SDS011;11492;42.646;23.400;2022-12-11T03:05:37;6.18;;;2.33;;
22650;SDS011;11492;42.646;23.400;2022-12-11T03:08:03;9.75;;;2.20;;
22650;SDS011;11492;42.646;23.400;2022-12-11T03:10:28;6.18;;;2.47;;
22650;SDS011;11492;42.646;23.400;2022-12-11T03:12:54;5.43;;;2.67;;
22650;SDS011;11492;42.646;23.400;2022-12-11T03:15:30;7.65;;;2.53;;
22650;SDS011;11492;42.646;23.400;2022-12-11T03:18:50;5.47;;;2.30;;
22650;SDS011;11492;42.646;23.400;2022-12-11T03:26:21;1.13;;;0.88;;
22650;SDS011;11492;42.646;23.400;2022-12-11T03:31:26;1.42;;;0.65;;
22650;SDS011;11492;42.646;23.400;2022-12-11T03:34:03;2.60;;;0.60;;
22650;SDS011;11492;42.646;23.400;2022-12-11T03:36:38;4.25;;;1.23;;
22650;SDS011;11492;42.646;23.400;2022-12-11T03:39:47;2.60;;;1.60;;
22650;SDS011;11492;42.646;23.400;2022-12-11T03:41:58;4.43;;;1.40;;
22650;SDS011;11492;42.646;23.400;2022-12-11T03:44:26;4.85;;;1.30;;
22650;SDS011;11492;42.646;23.400;2022-12-11T03:46:53;3.15;;;1.30;;
22650;SDS011;11492;42.646;23.400;2022-12-11T03:49:23;2.90;;;1.40;;
22650;SDS011;11492;42.646;23.400;2022-12-11T03:51:53;2.50;;;1.20;;
22650;SDS011;11492;42.646;23.400;2022-12-11T03:54:21;9.05;;;1.20;;
22650;SDS011;11492;42.646;23.400;2022-12-11T03:56:47;4.30;;;1.40;;
22650;SDS011;11492;42.646;23.400;2022-12-11T03:59:17;3.80;;;1.10;;
22650;SDS011;11492;42.646;23.400;2022-12-11T04:01:42;3.28;;;0.95;;
22650;SDS011;11492;42.646;23.400;2022-12-11T04:04:08;0.90;;;0.68;;
22650;SDS011;11492;42.646;23.400;2022-12-11T04:06:33;2.63;;;0.82;;
22650;SDS011;11492;42.646;23.400;2022-12-11T04:08:59;2.85;;;0.90;;
22650;SDS011;11492;42.646;23.400;2022-12-11T04:11:24;3.60;;;1.00;;
22650;SDS011;11492;42.646;23.400;2022-12-11T04:14:06;1.98;;;0.80;;
22650;SDS011;11492;42.646;23.400;2022-12-11T04:16:53;2.63;;;0.80;;
22650;SDS011;11492;42.646;23.400;2022-12-11T04:19:21;4.03;;;1.13;;
22650;SDS011;11492;42.646;23.400;2022-12-11T04:22:05;3.10;;;1.05;;
22650;SDS011;11492;42.646;23.400;2022-12-11T04:24:57;2.50;;;1.27;;
22650;SDS011;11492;42.646;23.400;2022-12-11T04:27:22;5.75;;;1.30;;
22650;SDS011;11492;42.646;23.400;2022-12-11T04:30:08;3.25;;;1.38;;
22650;SDS011;11492;42.646;23.400;2022-12-11T04:32:35;5.63;;;1.58;;
22650;SDS011;11492;42.646;23.400;2022-12-11T04:35:01;4.90;;;1.02;;
22650;SDS011;11492;42.646;23.400;2022-12-11T04:37:27;3.90;;;1.10;;
22650;SDS011;11492;42.646;23.400;2022-12-11T04:39:52;1.25;;;0.80;;
22650;SDS011;11492;42.646;23.400;2022-12-11T04:42:18;3.00;;;0.63;;
22650;SDS011;11492;42.646;23.400;2022-12-11T04:44:43;2.40;;;0.73;;
22650;SDS011;11492;42.646;23.400;2022-12-11T04:47:08;5.10;;;0.80;;
22650;SDS011;11492;42.646;23.400;2022-12-11T04:49:34;3.47;;;1.10;;
22650;SDS011;11492;42.646;23.400;2022-12-11T04:51:59;2.85;;;0.80;;
22650;SDS011;11492;42.646;23.400;2022-12-11T04:54:25;1.90;;;0.90;;
22650;SDS011;11492;42.646;23.400;2022-12-11T04:56:50;1.90;;;0.82;;
22650;SDS011;11492;42.646;23.400;2022-12-11T04:59:15;9.63;;;1.00;;
22650;SDS011;11492;42.646;23.400;2022-12-11T05:01:41;3.35;;;0.90;;
22650;SDS011;11492;42.646;23.400;2022-12-11T05:04:06;2.70;;;1.00;;
22650;SDS011;11492;42.646;23.400;2022-12-11T05:06:32;3.78;;;0.95;;
22650;SDS011;11492;42.646;23.400;2022-12-11T05:08:57;2.90;;;0.88;;
22650;SDS011;11492;42.646;23.400;2022-12-11T05:11:22;2.50;;;0.63;;
22650;SDS011;11492;42.646;23.400;2022-12-11T05:13:48;3.72;;;0.77;;
22650;SDS011;11492;42.646;23.400;2022-12-11T05:16:16;3.15;;;0.70;;
22650;SDS011;11492;42.646;23.400;2022-12-11T05:18:42;1.52;;;0.60;;
22650;SDS011;11492;42.646;23.400;2022-12-11T05:21:10;2.63;;;0.80;;
22650;SDS011;11492;42.646;23.400;2022-12-11T05:23:37;4.45;;;0.70;;
22650;SDS011;11492;42.646;23.400;2022-12-11T05:26:21;1.98;;;0.50;;
22650;SDS011;11492;42.646;23.400;2022-12-11T05:28:49;4.90;;;1.05;;
22650;SDS011;11492;42.646;23.400;2022-12-11T05:31:18;3.13;;;0.47;;
22650;SDS011;11492;42.646;23.400;2022-12-11T05:33:51;2.90;;;0.70;;
22650;SDS011;11492;42.646;23.400;2022-12-11T05:36:21;2.88;;;0.73;;
22650;SDS011;11492;42.646;23.400;2022-12-11T05:38:52;2.22;;;0.82;;
22650;SDS011;11492;42.646;23.400;2022-12-11T05:41:19;3.08;;;0.90;;
22650;SDS011;11492;42.646;23.400;2022-12-11T05:43:46;3.92;;;0.70;;
22650;SDS011;11492;42.646;23.400;2022-12-11T05:46:16;3.97;;;1.08;;
22650;SDS011;11492;42.646;23.400;2022-12-11T05:48:44;4.95;;;1.00;;
22650;SDS011;11492;42.646;23.400;2022-12-11T05:51:11;2.50;;;0.85;;
22650;SDS011;11492;42.646;23.400;2022-12-11T05:53:38;2.13;;;0.60;;
22650;SDS011;11492;42.646;23.400;2022-12-11T05:56:10;3.03;;;0.70;;
22650;SDS011;11492;42.646;23.400;2022-12-11T05:58:40;1.65;;;0.60;;
22650;SDS011;11492;42.646;23.400;2022-12-11T06:01:08;2.72;;;0.88;;
22650;SDS011;11492;42.646;23.400;2022-12-11T06:03:36;2.55;;;0.80;;
22650;SDS011;11492;42.646;23.400;2022-12-11T06:06:03;2.30;;;0.50;;
22650;SDS011;11492;42.646;23.400;2022-12-11T06:08:29;1.35;;;0.50;;
22650;SDS011;11492;42.646;23.400;2022-12-11T06:10:55;1.00;;;0.55;;
22650;SDS011;11492;42.646;23.400;2022-12-11T06:13:21;4.05;;;0.60;;
22650;SDS011;11492;42.646;23.400;2022-12-11T06:15:46;3.13;;;0.88;;
22650;SDS011;11492;42.646;23.400;2022-12-11T06:18:12;3.45;;;0.70;;
22650;SDS011;11492;42.646;23.400;2022-12-11T06:20:37;3.28;;;0.73;;
22650;SDS011;11492;42.646;23.400;2022-12-11T06:23:02;1.65;;;0.63;;
22650;SDS011;11492;42.646;23.400;2022-12-11T06:25:28;1.38;;;0.50;;
22650;SDS011;11492;42.646;23.400;2022-12-11T06:27:54;4.32;;;0.70;;
22650;SDS011;11492;42.646;23.400;2022-12-11T06:30:19;2.22;;;0.50;;
22650;SDS011;11492;42.646;23.400;2022-12-11T06:32:45;2.45;;;0.60;;
22650;SDS011;11492;42.646;23.400;2022-12-11T06:35:10;5.50;;;0.68;;
22650;SDS011;11492;42.646;23.400;2022-12-11T06:37:36;4.07;;;0.90;;
22650;SDS011;11492;42.646;23.400;2022-12-11T06:40:03;2.22;;;0.90;;
22650;SDS011;11492;42.646;23.400;2022-12-11T06:42:29;2.20;;;0.60;;
22650;SDS011;11492;42.646;23.400;2022-12-11T06:44:56;2.08;;;0.70;;
22650;SDS011;11492;42.646;23.400;2022-12-11T06:47:24;2.72;;;0.40;;
22650;SDS011;11492;42.646;23.400;2022-12-11T06:49:50;1.70;;;0.52;;
22650;SDS011;11492;42.646;23.400;2022-12-11T06:52:16;1.95;;;0.50;;
22650;SDS011;11492;42.646;23.400;2022-12-11T06:54:42;1.58;;;0.60;;
22650;SDS011;11492;42.646;23.400;2022-12-11T06:57:08;1.73;;;0.70;;
22650;SDS011;11492;42.646;23.400;2022-12-11T06:59:34;4.45;;;0.90;;
22650;SDS011;11492;42.646;23.400;2022-12-11T07:01:59;3.63;;;0.90;;
22650;SDS011;11492;42.646;23.400;2022-12-11T07:04:25;1.70;;;0.60;;
22650;SDS011;11492;42.646;23.400;2022-12-11T07:06:51;3.17;;;0.90;;
22650;SDS011;11492;42.646;23.400;2022-12-11T07:09:17;3.90;;;0.75;;
22650;SDS011;11492;42.646;23.400;2022-12-11T07:11:43;3.75;;;0.70;;
22650;SDS011;11492;42.646;23.400;2022-12-11T07:14:08;2.25;;;0.50;;
22650;SDS011;11492;42.646;23.400;2022-12-11T07:16:34;2.92;;;0.60;;
22650;SDS011;11492;42.646;23.400;2022-12-11T07:18:59;3.13;;;0.93;;
22650;SDS011;11492;42.646;23.400;2022-12-11T07:21:25;1.70;;;1.02;;
22650;SDS011;11492;42.646;23.400;2022-12-11T07:23:50;3.90;;;1.00;;
22650;SDS011;11492;42.646;23.400;2022-12-11T07:26:16;3.42;;;0.50;;
22650;SDS011;11492;42.646;23.400;2022-12-11T07:28:43;6.32;;;0.95;;
22650;SDS011;11492;42.646;23.400;2022-12-11T07:31:11;7.00;;;1.10;;
22650;SDS011;11492;42.646;23.400;2022-12-11T07:33:38;2.15;;;0.98;;
22650;SDS011;11492;42.646;23.400;2022-12-11T07:36:05;4.30;;;1.00;;
22650;SDS011;11492;42.646;23.400;2022-12-11T07:38:33;5.40;;;1.00;;
22650;SDS011;11492;42.646;23.400;2022-12-11T07:41:03;3.38;;;0.77;;
22650;SDS011;11492;42.646;23.400;2022-12-11T07:43:30;3.42;;;1.10;;
22650;SDS011;11492;42.646;23.400;2022-12-11T07:46:06;3.20;;;0.90;;
22650;SDS011;11492;42.646;23.400;2022-12-11T07:48:35;3.35;;;1.00;;
22650;SDS011;11492;42.646;23.400;2022-12-11T07:51:11;2.88;;;0.80;;
22650;SDS011;11492;42.646;23.400;2022-12-11T07:53:42;2.72;;;0.68;;
22650;SDS011;11492;42.646;23.400;2022-12-11T07:56:08;1.75;;;0.80;;
22650;SDS011;11492;42.646;23.400;2022-12-11T07:58:34;5.38;;;1.13;;
22650;SDS011;11492;42.646;23.400;2022-12-11T08:01:00;5.35;;;0.90;;
22650;SDS011;11492;42.646;23.400;2022-12-11T08:03:25;3.42;;;0.80;;
22650;SDS011;11492;42.646;23.400;2022-12-11T08:05:51;2.67;;;1.00;;
22650;SDS011;11492;42.646;23.400;2022-12-11T08:08:18;2.42;;;0.85;;
22650;SDS011;11492;42.646;23.400;2022-12-11T08:10:43;3.05;;;0.70;;
22650;SDS011;11492;42.646;23.400;2022-12-11T08:13:09;2.42;;;0.70;;
22650;SDS011;11492;42.646;23.400;2022-12-11T08:15:35;6.03;;;0.80;;
22650;SDS011;11492;42.646;23.400;2022-12-11T08:18:01;2.92;;;0.98;;
22650;SDS011;11492;42.646;23.400;2022-12-11T08:20:26;5.78;;;1.20;;
22650;SDS011;11492;42.646;23.400;2022-12-11T08:22:51;7.53;;;1.20;;
22650;SDS011;11492;42.646;23.400;2022-12-11T08:25:17;4.85;;;0.80;;
22650;SDS011;11492;42.646;23.400;2022-12-11T08:27:42;1.70;;;0.80;;
22650;SDS011;11492;42.646;23.400;2022-12-11T08:30:08;3.45;;;1.13;;
22650;SDS011;11492;42.646;23.400;2022-12-11T08:32:34;4.10;;;0.90;;
22650;SDS011;11492;42.646;23.400;2022-12-11T08:35:00;4.97;;;1.30;;
22650;SDS011;11492;42.646;23.400;2022-12-11T08:37:25;2.72;;;0.70;;
22650;SDS011;11492;42.646;23.400;2022-12-11T08:39:51;4.72;;;1.20;;
22650;SDS011;11492;42.646;23.400;2022-12-11T08:42:16;2.95;;;1.40;;
22650;SDS011;11492;42.646;23.400;2022-12-11T08:44:42;4.70;;;0.60;;
22650;SDS011;11492;42.646;23.400;2022-12-11T08:47:07;4.55;;;0.70;;
22650;SDS011;11492;42.646;23.400;2022-12-11T08:49:34;2.33;;;0.65;;
22650;SDS011;11492;42.646;23.400;2022-12-11T08:52:01;2.65;;;0.90;;
22650;SDS011;11492;42.646;23.400;2022-12-11T08:54:27;4.47;;;0.80;;
22650;SDS011;11492;42.646;23.400;2022-12-11T08:56:53;2.25;;;0.73;;
22650;SDS011;11492;42.646;23.400;2022-12-11T08:59:18;2.92;;;0.80;;
22650;SDS011;11492;42.646;23.400;2022-12-11T09:01:44;2.75;;;0.90;;
22650;SDS011;11492;42.646;23.400;2022-12-11T09:04:09;4.35;;;1.02;;
22650;SDS011;11492;42.646;23.400;2022-12-11T09:06:34;2.22;;;0.70;;
22650;SDS011;11492;42.646;23.400;2022-12-11T09:09:00;4.90;;;1.15;;
22650;SDS011;11492;42.646;23.400;2022-12-11T09:11:29;3.42;;;0.75;;
22650;SDS011;11492;42.646;23.400;2022-12-11T09:13:56;3.38;;;1.10;;
22650;SDS011;11492;42.646;23.400;2022-12-11T09:16:22;3.05;;;1.10;;
22650;SDS011;11492;42.646;23.400;2022-12-11T09:18:50;7.50;;;1.30;;
22650;SDS011;11492;42.646;23.400;2022-12-11T09:21:18;5.93;;;1.60;;
22650;SDS011;11492;42.646;23.400;2022-12-11T09:23:45;3.42;;;1.00;;
22650;SDS011;11492;42.646;23.400;2022-12-11T09:26:12;8.10;;;1.10;;
22650;SDS011;11492;42.646;23.400;2022-12-11T09:28:39;7.30;;;1.13;;
22650;SDS011;11492;42.646;23.400;2022-12-11T09:31:15;4.88;;;1.05;;
22650;SDS011;11492;42.646;23.400;2022-12-11T09:33:43;4.90;;;1.10;;
22650;SDS011;11492;42.646;23.400;2022-12-11T09:36:09;1.48;;;0.60;;
22650;SDS011;11492;42.646;23.400;2022-12-11T09:38:35;4.07;;;1.13;;
22650;SDS011;11492;42.646;23.400;2022-12-11T09:41:02;4.18;;;0.90;;
22650;SDS011;11492;42.646;23.400;2022-12-11T09:46:16;4.30;;;0.98;;
22650;SDS011;11492;42.646;23.400;2022-12-11T09:48:43;5.22;;;1.17;;
22650;SDS011;11492;42.646;23.400;2022-12-11T09:54:10;4.30;;;0.82;;
22650;SDS011;11492;42.646;23.400;2022-12-11T09:59:25;2.05;;;0.90;;
22650;SDS011;11492;42.646;23.400;2022-12-11T10:04:33;1.63;;;0.68;;
22650;SDS011;11492;42.646;23.400;2022-12-11T10:13:39;5.78;;;0.98;;
22650;SDS011;11492;42.646;23.400;2022-12-11T10:16:19;2.22;;;0.70;;
22650;SDS011;11492;42.646;23.400;2022-12-11T10:19:03;2.10;;;0.93;;
22650;SDS011;11492;42.646;23.400;2022-12-11T10:21:33;3.17;;;1.52;;
22650;SDS011;11492;42.646;23.400;2022-12-11T10:24:04;2.03;;;1.15;;
22650;SDS011;11492;42.646;23.400;2022-12-11T10:26:57;1.60;;;0.90;;
22650;SDS011;11492;42.646;23.400;2022-12-11T10:29:34;3.15;;;1.20;;
22650;SDS011;11492;42.646;23.400;2022-12-11T10:31:59;4.90;;;1.20;;
22650;SDS011;11492;42.646;23.400;2022-12-11T10:34:33;6.20;;;1.23;;
22650;SDS011;11492;42.646;23.400;2022-12-11T10:37:00;2.50;;;1.17;;
22650;SDS011;11492;42.646;23.400;2022-12-11T10:39:26;5.43;;;1.17;;
22650;SDS011;11492;42.646;23.400;2022-12-11T10:41:52;2.97;;;1.20;;
22650;SDS011;11492;42.646;23.400;2022-12-11T10:49:31;1.60;;;0.90;;
22650;SDS011;11492;42.646;23.400;2022-12-11T10:51:58;1.83;;;0.90;;
22650;SDS011;11492;42.646;23.400;2022-12-11T10:54:34;2.30;;;1.27;;
22650;SDS011;11492;42.646;23.400;2022-12-11T10:57:05;3.78;;;1.25;;
22650;SDS011;11492;42.646;23.400;2022-12-11T11:02:16;4.53;;;1.42;;
22650;SDS011;11492;42.646;23.400;2022-12-11T11:04:43;5.78;;;1.70;;
22650;SDS011;11492;42.646;23.400;2022-12-11T11:07:13;4.70;;;1.30;;
22650;SDS011;11492;42.646;23.400;2022-12-11T11:09:42;2.47;;;1.30;;
22650;SDS011;11492;42.646;23.400;2022-12-11T11:12:21;8.57;;;1.85;;
22650;SDS011;11492;42.646;23.400;2022-12-11T11:14:59;9.00;;;2.17;;
22650;SDS011;11492;42.646;23.400;2022-12-11T11:17:30;6.88;;;1.85;;
22650;SDS011;11492;42.646;23.400;2022-12-11T11:20:03;7.18;;;1.75;;
22650;SDS011;11492;42.646;23.400;2022-12-11T11:22:37;3.78;;;1.38;;
22650;SDS011;11492;42.646;23.400;2022-12-11T11:25:20;5.15;;;1.17;;
22650;SDS011;11492;42.646;23.400;2022-12-11T11:27:51;2.80;;;1.35;;
22650;SDS011;11492;42.646;23.400;2022-12-11T11:30:21;5.28;;;1.40;;
22650;SDS011;11492;42.646;23.400;2022-12-11T11:33:19;2.17;;;1.20;;
22650;SDS011;11492;42.646;23.400;2022-12-11T11:38:57;3.10;;;0.90;;
22650;SDS011;11492;42.646;23.400;2022-12-11T11:41:23;2.28;;;1.08;;
22650;SDS011;11492;42.646;23.400;2022-12-11T11:44:07;3.85;;;1.25;;
22650;SDS011;11492;42.646;23.400;2022-12-11T11:52:20;8.73;;;1.52;;
22650;SDS011;11492;42.646;23.400;2022-12-11T12:00:19;2.45;;;1.10;;
22650;SDS011;11492;42.646;23.400;2022-12-11T12:02:48;9.90;;;1.95;;
22650;SDS011;11492;42.646;23.400;2022-12-11T12:05:27;6.90;;;1.80;;
22650;SDS011;11492;42.646;23.400;2022-12-11T12:08:10;9.55;;;2.08;;
22650;SDS011;11492;42.646;23.400;2022-12-11T12:10:58;12.77;;;5.38;;
22650;SDS011;11492;42.646;23.400;2022-12-11T12:16:13;4.95;;;1.88;;
22650;SDS011;11492;42.646;23.400;2022-12-11T12:19:00;8.40;;;2.40;;
22650;SDS011;11492;42.646;23.400;2022-12-11T12:21:37;5.47;;;1.75;;
22650;SDS011;11492;42.646;23.400;2022-12-11T12:27:17;6.43;;;2.03;;
22650;SDS011;11492;42.646;23.400;2022-12-11T12:35:37;4.68;;;1.90;;
22650;SDS011;11492;42.646;23.400;2022-12-11T12:43:30;9.43;;;3.45;;
22650;SDS011;11492;42.646;23.400;2022-12-11T12:49:11;10.55;;;2.83;;
22650;SDS011;11492;42.646;23.400;2022-12-11T12:51:40;3.27;;;2.00;;
22650;SDS011;11492;42.646;23.400;2022-12-11T12:54:08;4.75;;;2.03;;
22650;SDS011;11492;42.646;23.400;2022-12-11T12:56:40;8.05;;;2.20;;
22650;SDS011;11492;42.646;23.400;2022-12-11T12:59:18;5.45;;;2.33;;
22650;SDS011;11492;42.646;23.400;2022-12-11T13:01:46;4.75;;;1.92;;
22650;SDS011;11492;42.646;23.400;2022-12-11T13:07:24;4.18;;;1.95;;
22650;SDS011;11492;42.646;23.400;2022-12-11T13:12:40;7.15;;;2.67;;
22650;SDS011;11492;42.646;23.400;2022-12-11T13:15:32;5.18;;;1.90;;
22650;SDS011;11492;42.646;23.400;2022-12-11T13:17:58;2.40;;;1.73;;
22650;SDS011;11492;42.646;23.400;2022-12-11T13:20:25;5.10;;;1.88;;
22650;SDS011;11492;42.646;23.400;2022-12-11T13:22:55;2.85;;;1.70;;
22650;SDS011;11492;42.646;23.400;2022-12-11T13:33:50;1.30;;;1.20;;
22650;SDS011;11492;42.646;23.400;2022-12-11T13:39:18;4.47;;;1.60;;
22650;SDS011;11492;42.646;23.400;2022-12-11T13:41:43;2.10;;;1.20;;
22650;SDS011;11492;42.646;23.400;2022-12-11T13:44:14;3.92;;;1.38;;
22650;SDS011;11492;42.646;23.400;2022-12-11T13:46:46;2.28;;;1.10;;
22650;SDS011;11492;42.646;23.400;2022-12-11T13:49:19;2.65;;;1.20;;
22650;SDS011;11492;42.646;23.400;2022-12-11T13:51:51;4.32;;;1.20;;
22650;SDS011;11492;42.646;23.400;2022-12-11T13:54:24;2.25;;;1.30;;
22650;SDS011;11492;42.646;23.400;2022-12-11T13:59:29;2.40;;;1.30;;
22650;SDS011;11492;42.646;23.400;2022-12-11T14:02:22;1.73;;;1.20;;
22650;SDS011;11492;42.646;23.400;2022-12-11T14:04:48;3.10;;;1.40;;
22650;SDS011;11492;42.646;23.400;2022-12-11T14:07:19;2.20;;;1.40;;
22650;SDS011;11492;42.646;23.400;2022-12-11T14:09:51;3.22;;;1.42;;
22650;SDS011;11492;42.646;23.400;2022-12-11T14:12:22;2.70;;;1.52;;
22650;SDS011;11492;42.646;23.400;2022-12-11T14:14:54;3.45;;;1.55;;
22650;SDS011;11492;42.646;23.400;2022-12-11T14:17:26;4.03;;;1.63;;
22650;SDS011;11492;42.646;23.400;2022-12-11T14:19:57;3.85;;;1.40;;
22650;SDS011;11492;42.646;23.400;2022-12-11T14:22:26;2.42;;;1.58;;
22650;SDS011;11492;42.646;23.400;2022-12-11T14:24:57;3.65;;;1.42;;
22650;SDS011;11492;42.646;23.400;2022-12-11T14:27:26;3.60;;;1.07;;
22650;SDS011;11492;42.646;23.400;2022-12-11T14:29:54;4.70;;;1.40;;
22650;SDS011;11492;42.646;23.400;2022-12-11T14:32:25;4.70;;;1.40;;
22650;SDS011;11492;42.646;23.400;2022-12-11T14:34:56;3.35;;;1.50;;
22650;SDS011;11492;42.646;23.400;2022-12-11T14:37:24;4.97;;;1.80;;
22650;SDS011;11492;42.646;23.400;2022-12-11T14:39:56;6.68;;;2.00;;
22650;SDS011;11492;42.646;23.400;2022-12-11T14:42:35;5.53;;;2.00;;
22650;SDS011;11492;42.646;23.400;2022-12-11T14:47:39;6.20;;;1.55;;
22650;SDS011;11492;42.646;23.400;2022-12-11T14:50:10;1.40;;;0.93;;
22650;SDS011;11492;42.646;23.400;2022-12-11T14:52:43;3.17;;;1.42;;
22650;SDS011;11492;42.646;23.400;2022-12-11T14:55:19;5.35;;;1.35;;
22650;SDS011;11492;42.646;23.400;2022-12-11T14:57:51;2.33;;;1.35;;
22650;SDS011;11492;42.646;23.400;2022-12-11T15:00:28;2.95;;;1.40;;
22650;SDS011;11492;42.646;23.400;2022-12-11T15:05:26;2.35;;;1.27;;
22650;SDS011;11492;42.646;23.400;2022-12-11T15:08:26;4.43;;;1.40;;
22650;SDS011;11492;42.646;23.400;2022-12-11T15:13:36;4.97;;;1.30;;
22650;SDS011;11492;42.646;23.400;2022-12-11T15:16:12;3.85;;;1.60;;
22650;SDS011;11492;42.646;23.400;2022-12-11T15:18:39;4.25;;;1.40;;
22650;SDS011;11492;42.646;23.400;2022-12-11T15:21:07;4.00;;;1.60;;
22650;SDS011;11492;42.646;23.400;2022-12-11T15:26:18;2.03;;;1.13;;
22650;SDS011;11492;42.646;23.400;2022-12-11T15:28:44;1.90;;;1.15;;
22650;SDS011;11492;42.646;23.400;2022-12-11T15:31:26;2.17;;;1.30;;
22650;SDS011;11492;42.646;23.400;2022-12-11T15:33:53;1.55;;;1.08;;
22650;SDS011;11492;42.646;23.400;2022-12-11T15:36:34;3.08;;;1.33;;
22650;SDS011;11492;42.646;23.400;2022-12-11T15:39:01;4.15;;;1.58;;
22650;SDS011;11492;42.646;23.400;2022-12-11T15:41:27;7.40;;;1.70;;
22650;SDS011;11492;42.646;23.400;2022-12-11T15:43:57;2.92;;;1.40;;
22650;SDS011;11492;42.646;23.400;2022-12-11T15:46:25;3.47;;;1.38;;
22650;SDS011;11492;42.646;23.400;2022-12-11T15:48:51;4.82;;;1.70;;
22650;SDS011;11492;42.646;23.400;2022-12-11T15:51:17;4.68;;;1.63;;
22650;SDS011;11492;42.646;23.400;2022-12-11T15:53:42;8.77;;;1.90;;
22650;SDS011;11492;42.646;23.400;2022-12-11T15:56:14;2.53;;;1.65;;
22650;SDS011;11492;42.646;23.400;2022-12-11T15:58:40;3.30;;;1.80;;
22650;SDS011;11492;42.646;23.400;2022-12-11T16:01:11;23.13;;;11.35;;
22650;SDS011;11492;42.646;23.400;2022-12-11T16:03:36;20.40;;;11.77;;
22650;SDS011;11492;42.646;23.400;2022-12-11T16:06:02;4.53;;;1.80;;
22650;SDS011;11492;42.646;23.400;2022-12-11T16:08:27;4.40;;;1.90;;
22650;SDS011;11492;42.646;23.400;2022-12-11T16:10:53;5.70;;;1.70;;
22650;SDS011;11492;42.646;23.400;2022-12-11T16:13:19;3.70;;;1.73;;
22650;SDS011;11492;42.646;23.400;2022-12-11T16:15:46;2.38;;;1.50;;
22650;SDS011;11492;42.646;23.400;2022-12-11T16:18:13;3.83;;;1.40;;
22650;SDS011;11492;42.646;23.400;2022-12-11T16:20:41;3.75;;;1.70;;
22650;SDS011;11492;42.646;23.400;2022-12-11T16:23:08;2.35;;;1.60;;
22650;SDS011;11492;42.646;23.400;2022-12-11T16:25:35;2.65;;;1.55;;
22650;SDS011;11492;42.646;23.400;2022-12-11T16:28:02;2.45;;;1.35;;
22650;SDS011;11492;42.646;23.400;2022-12-11T16:30:28;2.95;;;1.40;;
22650;SDS011;11492;42.646;23.400;2022-12-11T16:32:53;1.60;;;1.40;;
22650;SDS011;11492;42.646;23.400;2022-12-11T16:35:19;1.95;;;1.52;;